sensor_id;sensor_type;location;lat;lon;timestamp;pressure;altitude;pressure_sealevel;temperature;humidity
17785;BME280;9016;53.582;10.062;2023-06-24T00:00:15;102208.59;;;19.04;84.86
17785;BME280;9016;53.582;10.062;2023-06-24T00:02:43;102210.41;;;19.04;84.65
17785;BME280;9016;53.582;10.062;2023-06-24T00:05:12;102223.59;;;19.08;84.43
17785;BME280;9016;53.582;10.062;2023-06-24T00:07:44;102237.00;;;19.10;84.50
17785;BME280;9016;53.582;10.062;2023-06-24T00:10:13;102230.72;;;19.09;84.59
17785;BME280;9016;53.582;10.062;2023-06-24T00:12:58;102233.25;;;19.00;85.28
17785;BME280;9016;53.582;10.062;2023-06-24T00:15:28;102237.66;;;19.01;85.74
17785;BME280;9016;53.582;10.062;2023-06-24T00:17:56;102230.22;;;19.04;85.61
17785;BME280;9016;53.582;10.062;2023-06-24T00:20:33;102236.47;;;19.05;85.74
17785;BME280;9016;53.582;10.062;2023-06-24T00:23:03;102243.59;;;19.06;86.19
17785;BME280;9016;53.582;10.062;2023-06-24T00:25:31;102238.13;;;19.07;86.19
17785;BME280;9016;53.582;10.062;2023-06-24T00:27:59;102234.75;;;19.04;85.94
17785;BME280;9016;53.582;10.062;2023-06-24T00:30:27;102242.53;;;18.96;86.44
17785;BME280;9016;53.582;10.062;2023-06-24T00:32:58;102234.44;;;18.96;86.65
17785;BME280;9016;53.582;10.062;2023-06-24T00:35:26;102244.38;;;18.95;86.92
17785;BME280;9016;53.582;10.062;2023-06-24T00:37:54;102238.66;;;18.87;87.02
17785;BME280;9016;53.582;10.062;2023-06-24T00:40:26;102248.03;;;18.82;87.65
17785;BME280;9016;53.582;10.062;2023-06-24T00:42:55;102251.97;;;18.77;87.58
17785;BME280;9016;53.582;10.062;2023-06-24T00:45:24;102249.34;;;18.76;88.07
17785;BME280;9016;53.582;10.062;2023-06-24T00:47:52;102253.78;;;18.77;87.88
17785;BME280;9016;53.582;10.062;2023-06-24T00:50:23;102248.50;;;18.75;87.95
17785;BME280;9016;53.582;10.062;2023-06-24T00:52:51;102251.22;;;18.75;88.04
17785;BME280;9016;53.582;10.062;2023-06-24T00:55:19;102246.88;;;18.73;88.09
17785;BME280;9016;53.582;10.062;2023-06-24T00:57:51;102257.03;;;18.69;88.29
17785;BME280;9016;53.582;10.062;2023-06-24T01:00:21;102264.38;;;18.67;88.25
17785;BME280;9016;53.582;10.062;2023-06-24T01:02:50;102256.25;;;18.67;88.20
17785;BME280;9016;53.582;10.062;2023-06-24T01:05:18;102257.03;;;18.57;88.53
17785;BME280;9016;53.582;10.062;2023-06-24T01:07:51;102257.97;;;18.56;89.22
17785;BME280;9016;53.582;10.062;2023-06-24T01:10:24;102257.22;;;18.54;89.16
17785;BME280;9016;53.582;10.062;2023-06-24T01:12:54;102261.97;;;18.50;89.05
17785;BME280;9016;53.582;10.062;2023-06-24T01:15:23;102258.94;;;18.42;89.38
17785;BME280;9016;53.582;10.062;2023-06-24T01:17:59;102266.94;;;18.44;89.69
17785;BME280;9016;53.582;10.062;2023-06-24T01:20:32;102267.06;;;18.42;89.72
17785;BME280;9016;53.582;10.062;2023-06-24T01:26:19;102273.78;;;18.35;90.48
17785;BME280;9016;53.582;10.062;2023-06-24T01:29:22;102275.81;;;18.32;90.59
17785;BME280;9016;53.582;10.062;2023-06-24T01:31:58;102283.59;;;18.24;90.38
17785;BME280;9016;53.582;10.062;2023-06-24T01:34:29;102275.69;;;18.21;91.10
17785;BME280;9016;53.582;10.062;2023-06-24T01:37:07;102280.03;;;18.23;90.79
17785;BME280;9016;53.582;10.062;2023-06-24T01:39:42;102276.16;;;18.27;90.95
17785;BME280;9016;53.582;10.062;2023-06-24T01:42:14;102278.19;;;18.24;90.47
17785;BME280;9016;53.582;10.062;2023-06-24T01:44:45;102278.31;;;18.22;90.84
17785;BME280;9016;53.582;10.062;2023-06-24T01:47:19;102280.25;;;18.20;91.20
17785;BME280;9016;53.582;10.062;2023-06-24T01:49:53;102277.19;;;18.12;91.27
17785;BME280;9016;53.582;10.062;2023-06-24T01:52:22;102283.63;;;18.10;91.89
17785;BME280;9016;53.582;10.062;2023-06-24T01:54:52;102283.56;;;18.11;92.02
17785;BME280;9016;53.582;10.062;2023-06-24T01:57:21;102276.53;;;18.09;91.94
17785;BME280;9016;53.582;10.062;2023-06-24T01:59:52;102291.84;;;18.08;91.76
17785;BME280;9016;53.582;10.062;2023-06-24T02:02:24;102296.28;;;18.09;91.99
17785;BME280;9016;53.582;10.062;2023-06-24T02:04:54;102286.34;;;18.10;91.89
17785;BME280;9016;53.582;10.062;2023-06-24T02:07:23;102291.19;;;18.05;91.42
17785;BME280;9016;53.582;10.062;2023-06-24T02:09:54;102286.84;;;18.02;92.23
17785;BME280;9016;53.582;10.062;2023-06-24T02:12:23;102284.38;;;17.99;92.50
17785;BME280;9016;53.582;10.062;2023-06-24T02:14:52;102286.00;;;18.02;92.46
17785;BME280;9016;53.582;10.062;2023-06-24T02:17:24;102280.72;;;18.00;91.87
17785;BME280;9016;53.582;10.062;2023-06-24T02:19:52;102283.41;;;18.00;92.19
17785;BME280;9016;53.582;10.062;2023-06-24T02:22:22;102284.25;;;18.01;91.90
17785;BME280;9016;53.582;10.062;2023-06-24T02:24:52;102291.69;;;17.97;92.18
17785;BME280;9016;53.582;10.062;2023-06-24T02:27:21;102292.88;;;17.93;92.27
17785;BME280;9016;53.582;10.062;2023-06-24T02:29:51;102294.50;;;17.96;92.53
17785;BME280;9016;53.582;10.062;2023-06-24T02:32:19;102307.00;;;17.97;92.21
17785;BME280;9016;53.582;10.062;2023-06-24T02:34:49;102299.91;;;17.96;92.01
17785;BME280;9016;53.582;10.062;2023-06-24T02:37:17;102298.38;;;17.92;92.08
17785;BME280;9016;53.582;10.062;2023-06-24T02:39:45;102307.13;;;17.95;92.13
17785;BME280;9016;53.582;10.062;2023-06-24T02:42:13;102313.38;;;17.96;91.97
17785;BME280;9016;53.582;10.062;2023-06-24T02:44:42;102315.97;;;17.97;91.87
17785;BME280;9016;53.582;10.062;2023-06-24T02:47:12;102308.09;;;17.94;92.27
17785;BME280;9016;53.582;10.062;2023-06-24T02:49:44;102306.34;;;17.93;92.20
17785;BME280;9016;53.582;10.062;2023-06-24T02:52:15;102306.16;;;17.96;91.80
17785;BME280;9016;53.582;10.062;2023-06-24T02:54:44;102308.38;;;17.90;92.20
17785;BME280;9016;53.582;10.062;2023-06-24T02:57:12;102300.41;;;17.88;91.96
17785;BME280;9016;53.582;10.062;2023-06-24T02:59:42;102311.19;;;17.88;92.22
17785;BME280;9016;53.582;10.062;2023-06-24T03:02:11;102308.50;;;17.88;92.40
17785;BME280;9016;53.582;10.062;2023-06-24T03:04:39;102315.41;;;17.92;91.95
17785;BME280;9016;53.582;10.062;2023-06-24T03:07:08;102317.25;;;17.92;91.75
17785;BME280;9016;53.582;10.062;2023-06-24T03:09:39;102317.91;;;17.95;91.66
17785;BME280;9016;53.582;10.062;2023-06-24T03:12:07;102323.31;;;17.95;91.54
17785;BME280;9016;53.582;10.062;2023-06-24T03:14:36;102318.00;;;17.94;91.24
17785;BME280;9016;53.582;10.062;2023-06-24T03:17:04;102318.78;;;17.96;91.09
17785;BME280;9016;53.582;10.062;2023-06-24T03:19:32;102313.78;;;17.90;91.24
17785;BME280;9016;53.582;10.062;2023-06-24T03:22:00;102310.97;;;17.91;91.47
17785;BME280;9016;53.582;10.062;2023-06-24T03:24:29;102317.91;;;17.95;91.49
17785;BME280;9016;53.582;10.062;2023-06-24T03:27:01;102312.72;;;17.92;91.66
17785;BME280;9016;53.582;10.062;2023-06-24T03:29:29;102312.81;;;17.91;92.03
17785;BME280;9016;53.582;10.062;2023-06-24T03:31:57;102325.22;;;17.93;91.90
17785;BME280;9016;53.582;10.062;2023-06-24T03:34:25;102326.09;;;17.94;92.00
17785;BME280;9016;53.582;10.062;2023-06-24T03:36:53;102326.97;;;17.94;92.11
17785;BME280;9016;53.582;10.062;2023-06-24T03:39:22;102329.56;;;17.96;92.13
17785;BME280;9016;53.582;10.062;2023-06-24T03:41:50;102323.13;;;17.98;91.93
17785;BME280;9016;53.582;10.062;2023-06-24T03:44:19;102323.13;;;17.98;91.54
17785;BME280;9016;53.582;10.062;2023-06-24T03:46:47;102321.84;;;18.04;91.22
17785;BME280;9016;53.582;10.062;2023-06-24T03:49:15;102325.00;;;18.10;91.05
17785;BME280;9016;53.582;10.062;2023-06-24T03:51:44;102331.81;;;18.16;90.70
17785;BME280;9016;53.582;10.062;2023-06-24T03:54:12;102332.78;;;18.15;90.85
17785;BME280;9016;53.582;10.062;2023-06-24T03:56:40;102331.59;;;18.19;90.77
17785;BME280;9016;53.582;10.062;2023-06-24T03:59:08;102329.66;;;18.21;90.69
17785;BME280;9016;53.582;10.062;2023-06-24T04:01:38;102333.72;;;18.28;90.39
17785;BME280;9016;53.582;10.062;2023-06-24T04:04:06;102336.84;;;18.34;90.06
17785;BME280;9016;53.582;10.062;2023-06-24T04:06:34;102334.59;;;18.41;89.74
17785;BME280;9016;53.582;10.062;2023-06-24T04:09:02;102337.56;;;18.50;88.80
17785;BME280;9016;53.582;10.062;2023-06-24T04:11:30;102332.75;;;18.55;88.43
17785;BME280;9016;53.582;10.062;2023-06-24T04:13:58;102334.16;;;18.61;88.13
17785;BME280;9016;53.582;10.062;2023-06-24T04:16:26;102332.88;;;18.66;87.73
17785;BME280;9016;53.582;10.062;2023-06-24T04:18:56;102334.34;;;18.70;86.91
17785;BME280;9016;53.582;10.062;2023-06-24T04:21:24;102333.53;;;18.70;86.59
17785;BME280;9016;53.582;10.062;2023-06-24T04:23:52;102333.19;;;18.74;85.41
17785;BME280;9016;53.582;10.062;2023-06-24T04:26:20;102331.56;;;18.72;84.44
17785;BME280;9016;53.582;10.062;2023-06-24T04:28:48;102331.25;;;18.76;84.91
17785;BME280;9016;53.582;10.062;2023-06-24T04:31:17;102326.72;;;18.77;84.72
17785;BME280;9016;53.582;10.062;2023-06-24T04:33:45;102332.66;;;18.82;84.11
17785;BME280;9016;53.582;10.062;2023-06-24T04:36:15;102337.19;;;18.82;83.80
17785;BME280;9016;53.582;10.062;2023-06-24T04:38:44;102330.06;;;18.81;83.51
17785;BME280;9016;53.582;10.062;2023-06-24T04:41:12;102324.25;;;18.87;82.62
17785;BME280;9016;53.582;10.062;2023-06-24T04:43:40;102331.38;;;18.88;82.23
17785;BME280;9016;53.582;10.062;2023-06-24T04:46:07;102344.56;;;18.92;82.16
17785;BME280;9016;53.582;10.062;2023-06-24T04:48:36;102336.88;;;18.99;82.29
17785;BME280;9016;53.582;10.062;2023-06-24T04:51:04;102346.63;;;19.01;81.55
17785;BME280;9016;53.582;10.062;2023-06-24T04:53:33;102345.00;;;19.11;80.98
17785;BME280;9016;53.582;10.062;2023-06-24T04:56:01;102348.16;;;19.05;80.45
17785;BME280;9016;53.582;10.062;2023-06-24T04:58:30;102345.22;;;19.08;80.46
17785;BME280;9016;53.582;10.062;2023-06-24T05:00:57;102347.03;;;19.08;79.34
17785;BME280;9016;53.582;10.062;2023-06-24T05:03:28;102344.47;;;19.06;79.10
17785;BME280;9016;53.582;10.062;2023-06-24T05:05:56;102353.53;;;19.18;78.77
17785;BME280;9016;53.582;10.062;2023-06-24T05:08:24;102342.50;;;19.21;78.99
17785;BME280;9016;53.582;10.062;2023-06-24T05:10:53;102343.91;;;19.26;78.59
17785;BME280;9016;53.582;10.062;2023-06-24T05:13:22;102347.72;;;19.36;78.58
17785;BME280;9016;53.582;10.062;2023-06-24T05:15:51;102345.25;;;19.46;77.54
17785;BME280;9016;53.582;10.062;2023-06-24T05:18:19;102350.38;;;19.61;77.23
17785;BME280;9016;53.582;10.062;2023-06-24T05:20:47;102340.84;;;19.68;76.49
17785;BME280;9016;53.582;10.062;2023-06-24T05:23:15;102340.41;;;19.74;75.85
17785;BME280;9016;53.582;10.062;2023-06-24T05:25:45;102339.09;;;19.80;75.10
17785;BME280;9016;53.582;10.062;2023-06-24T05:28:15;102338.00;;;19.83;74.29
17785;BME280;9016;53.582;10.062;2023-06-24T05:30:46;102340.44;;;19.98;73.85
17785;BME280;9016;53.582;10.062;2023-06-24T05:33:14;102332.00;;;20.03;73.52
17785;BME280;9016;53.582;10.062;2023-06-24T05:35:44;102331.63;;;20.07;72.91
17785;BME280;9016;53.582;10.062;2023-06-24T05:38:12;102339.41;;;20.12;72.77
17785;BME280;9016;53.582;10.062;2023-06-24T05:40:40;102327.47;;;20.14;72.49
17785;BME280;9016;53.582;10.062;2023-06-24T05:43:09;102321.31;;;20.25;71.88
17785;BME280;9016;53.582;10.062;2023-06-24T05:45:40;102324.34;;;20.20;71.30
17785;BME280;9016;53.582;10.062;2023-06-24T05:48:08;102325.72;;;20.26;71.34
17785;BME280;9016;53.582;10.062;2023-06-24T05:50:36;102326.91;;;20.34;71.17
17785;BME280;9016;53.582;10.062;2023-06-24T05:53:04;102337.66;;;20.47;71.23
17785;BME280;9016;53.582;10.062;2023-06-24T05:55:32;102337.44;;;20.61;70.42
17785;BME280;9016;53.582;10.062;2023-06-24T05:58:00;102334.41;;;20.65;69.63
17785;BME280;9016;53.582;10.062;2023-06-24T06:00:28;102339.31;;;20.71;69.55
17785;BME280;9016;53.582;10.062;2023-06-24T06:02:57;102334.66;;;20.73;68.16
17785;BME280;9016;53.582;10.062;2023-06-24T06:05:26;102345.19;;;20.89;69.23
17785;BME280;9016;53.582;10.062;2023-06-24T06:07:56;102347.97;;;21.11;67.77
17785;BME280;9016;53.582;10.062;2023-06-24T06:10:27;102361.53;;;21.33;67.54
17785;BME280;9016;53.582;10.062;2023-06-24T06:12:58;102367.22;;;21.41;66.38
17785;BME280;9016;53.582;10.062;2023-06-24T06:15:26;102358.69;;;21.24;66.38
17785;BME280;9016;53.582;10.062;2023-06-24T06:17:54;102358.06;;;21.20;65.88
17785;BME280;9016;53.582;10.062;2023-06-24T06:20:25;102356.72;;;21.26;65.26
17785;BME280;9016;53.582;10.062;2023-06-24T06:22:53;102365.63;;;21.94;66.01
17785;BME280;9016;53.582;10.062;2023-06-24T06:25:25;102358.75;;;23.47;61.14
17785;BME280;9016;53.582;10.062;2023-06-24T06:27:56;102359.59;;;24.27;58.42
17785;BME280;9016;53.582;10.062;2023-06-24T06:30:24;102361.50;;;26.03;53.88
17785;BME280;9016;53.582;10.062;2023-06-24T06:32:53;102357.38;;;26.79;50.81
17785;BME280;9016;53.582;10.062;2023-06-24T06:35:21;102362.13;;;28.13;45.86
17785;BME280;9016;53.582;10.062;2023-06-24T06:37:50;102355.06;;;28.69;42.82
17785;BME280;9016;53.582;10.062;2023-06-24T06:40:23;102355.38;;;27.92;45.31
17785;BME280;9016;53.582;10.062;2023-06-24T06:42:51;102367.06;;;27.34;45.96
17785;BME280;9016;53.582;10.062;2023-06-24T06:45:18;102364.84;;;27.97;45.01
17785;BME280;9016;53.582;10.062;2023-06-24T06:47:46;102366.16;;;28.43;42.02
17785;BME280;9016;53.582;10.062;2023-06-24T06:50:15;102358.13;;;29.06;41.67
17785;BME280;9016;53.582;10.062;2023-06-24T06:52:43;102359.66;;;29.95;40.61
17785;BME280;9016;53.582;10.062;2023-06-24T06:55:12;102366.72;;;30.96;37.29
17785;BME280;9016;53.582;10.062;2023-06-24T06:57:40;102359.38;;;31.84;36.63
17785;BME280;9016;53.582;10.062;2023-06-24T07:00:09;102357.81;;;32.26;34.27
17785;BME280;9016;53.582;10.062;2023-06-24T07:02:37;102353.44;;;32.52;34.46
17785;BME280;9016;53.582;10.062;2023-06-24T07:05:06;102355.44;;;32.58;33.38
17785;BME280;9016;53.582;10.062;2023-06-24T07:07:36;102351.03;;;32.64;32.41
17785;BME280;9016;53.582;10.062;2023-06-24T07:10:05;102348.13;;;33.21;32.17
17785;BME280;9016;53.582;10.062;2023-06-24T07:12:35;102349.75;;;33.70;31.28
17785;BME280;9016;53.582;10.062;2023-06-24T07:15:03;102348.13;;;33.89;31.18
17785;BME280;9016;53.582;10.062;2023-06-24T07:17:31;102353.19;;;34.20;30.51
17785;BME280;9016;53.582;10.062;2023-06-24T07:19:59;102346.16;;;34.17;30.79
17785;BME280;9016;53.582;10.062;2023-06-24T07:22:27;102354.19;;;34.85;30.09
17785;BME280;9016;53.582;10.062;2023-06-24T07:24:57;102351.66;;;35.10;28.88
17785;BME280;9016;53.582;10.062;2023-06-24T07:27:25;102363.31;;;35.38;28.83
17785;BME280;9016;53.582;10.062;2023-06-24T07:29:54;102356.31;;;35.36;28.17
17785;BME280;9016;53.582;10.062;2023-06-24T07:32:22;102358.25;;;36.06;27.99
17785;BME280;9016;53.582;10.062;2023-06-24T07:34:50;102359.78;;;35.88;27.08
17785;BME280;9016;53.582;10.062;2023-06-24T07:37:18;102366.03;;;35.84;27.50
17785;BME280;9016;53.582;10.062;2023-06-24T07:39:50;102369.66;;;35.91;26.40
17785;BME280;9016;53.582;10.062;2023-06-24T07:42:18;102365.28;;;35.51;26.60
17785;BME280;9016;53.582;10.062;2023-06-24T07:44:47;102366.34;;;36.14;26.31
17785;BME280;9016;53.582;10.062;2023-06-24T07:47:17;102371.41;;;36.23;26.40
17785;BME280;9016;53.582;10.062;2023-06-24T07:49:46;102373.63;;;36.08;26.83
17785;BME280;9016;53.582;10.062;2023-06-24T07:52:14;102374.00;;;35.41;27.91
17785;BME280;9016;53.582;10.062;2023-06-24T07:54:42;102375.72;;;33.69;28.95
17785;BME280;9016;53.582;10.062;2023-06-24T07:57:10;102374.09;;;34.35;28.35
17785;BME280;9016;53.582;10.062;2023-06-24T07:59:38;102373.16;;;35.34;27.42
17785;BME280;9016;53.582;10.062;2023-06-24T08:02:06;102364.50;;;35.95;25.65
17785;BME280;9016;53.582;10.062;2023-06-24T08:04:36;102363.66;;;35.88;26.49
17785;BME280;9016;53.582;10.062;2023-06-24T08:07:05;102359.19;;;36.31;27.08
17785;BME280;9016;53.582;10.062;2023-06-24T08:09:33;102359.97;;;36.07;26.97
17785;BME280;9016;53.582;10.062;2023-06-24T08:12:02;102357.25;;;36.38;25.98
17785;BME280;9016;53.582;10.062;2023-06-24T08:14:30;102351.78;;;36.18;25.58
17785;BME280;9016;53.582;10.062;2023-06-24T08:16:58;102358.31;;;36.99;26.22
17785;BME280;9016;53.582;10.062;2023-06-24T08:19:26;102360.56;;;36.84;26.83
17785;BME280;9016;53.582;10.062;2023-06-24T08:21:56;102352.56;;;36.38;26.92
17785;BME280;9016;53.582;10.062;2023-06-24T08:24:24;102358.53;;;37.22;25.78
17785;BME280;9016;53.582;10.062;2023-06-24T08:26:52;102357.03;;;37.02;25.33
17785;BME280;9016;53.582;10.062;2023-06-24T08:29:21;102353.56;;;37.49;25.01
17785;BME280;9016;53.582;10.062;2023-06-24T08:31:48;102353.03;;;37.58;25.34
17785;BME280;9016;53.582;10.062;2023-06-24T08:34:16;102356.97;;;37.69;25.26
17785;BME280;9016;53.582;10.062;2023-06-24T08:36:44;102352.81;;;37.78;24.99
17785;BME280;9016;53.582;10.062;2023-06-24T08:39:14;102350.44;;;37.82;24.53
17785;BME280;9016;53.582;10.062;2023-06-24T08:41:42;102352.16;;;38.12;24.47
17785;BME280;9016;53.582;10.062;2023-06-24T08:44:10;102344.00;;;37.99;24.56
17785;BME280;9016;53.582;10.062;2023-06-24T08:46:38;102341.56;;;38.21;24.41
17785;BME280;9016;53.582;10.062;2023-06-24T08:49:13;102339.97;;;37.95;24.87
17785;BME280;9016;53.582;10.062;2023-06-24T08:51:46;102347.38;;;38.19;24.45
17785;BME280;9016;53.582;10.062;2023-06-24T08:54:19;102341.00;;;38.30;23.85
17785;BME280;9016;53.582;10.062;2023-06-24T08:56:48;102344.22;;;37.98;24.18
17785;BME280;9016;53.582;10.062;2023-06-24T08:59:17;102351.56;;;38.10;24.87
17785;BME280;9016;53.582;10.062;2023-06-24T09:01:47;102356.53;;;38.38;24.08
17785;BME280;9016;53.582;10.062;2023-06-24T09:04:16;102359.81;;;38.35;23.49
17785;BME280;9016;53.582;10.062;2023-06-24T09:06:44;102360.13;;;37.36;24.33
17785;BME280;9016;53.582;10.062;2023-06-24T09:09:20;102357.25;;;37.00;25.04
17785;BME280;9016;53.582;10.062;2023-06-24T09:11:51;102357.69;;;37.22;24.01
17785;BME280;9016;53.582;10.062;2023-06-24T09:14:20;102354.81;;;37.53;24.91
17785;BME280;9016;53.582;10.062;2023-06-24T09:16:53;102348.56;;;37.57;24.50
17785;BME280;9016;53.582;10.062;2023-06-24T09:19:22;102354.16;;;37.76;24.56
17785;BME280;9016;53.582;10.062;2023-06-24T09:21:50;102353.81;;;38.20;23.82
17785;BME280;9016;53.582;10.062;2023-06-24T09:24:20;102355.66;;;38.26;23.34
17785;BME280;9016;53.582;10.062;2023-06-24T09:26:48;102351.66;;;38.22;23.03
17785;BME280;9016;53.582;10.062;2023-06-24T09:29:17;102353.16;;;38.18;23.78
17785;BME280;9016;53.582;10.062;2023-06-24T09:31:48;102347.59;;;38.18;23.39
17785;BME280;9016;53.582;10.062;2023-06-24T09:34:16;102344.53;;;37.90;23.18
17785;BME280;9016;53.582;10.062;2023-06-24T09:36:45;102340.66;;;37.72;23.79
17785;BME280;9016;53.582;10.062;2023-06-24T09:39:13;102340.28;;;37.26;24.76
17785;BME280;9016;53.582;10.062;2023-06-24T09:41:56;102348.53;;;36.97;24.78
17785;BME280;9016;53.582;10.062;2023-06-24T09:44:25;102343.28;;;36.51;25.64
17785;BME280;9016;53.582;10.062;2023-06-24T09:46:54;102335.88;;;36.38;25.49
17785;BME280;9016;53.582;10.062;2023-06-24T09:49:22;102332.59;;;35.59;26.79
17785;BME280;9016;53.582;10.062;2023-06-24T09:51:55;102332.19;;;35.56;26.76
17785;BME280;9016;53.582;10.062;2023-06-24T09:54:25;102319.41;;;34.70;27.70
17785;BME280;9016;53.582;10.062;2023-06-24T09:57:02;102323.63;;;34.40;27.88
17785;BME280;9016;53.582;10.062;2023-06-24T09:59:32;102318.22;;;33.65;29.48
17785;BME280;9016;53.582;10.062;2023-06-24T10:02:02;102325.00;;;33.28;30.20
17785;BME280;9016;53.582;10.062;2023-06-24T10:04:34;102326.00;;;32.93;30.33
17785;BME280;9016;53.582;10.062;2023-06-24T10:07:03;102320.19;;;32.60;31.41
17785;BME280;9016;53.582;10.062;2023-06-24T10:09:31;102308.19;;;32.32;31.23
17785;BME280;9016;53.582;10.062;2023-06-24T10:12:01;102308.28;;;32.39;31.52
17785;BME280;9016;53.582;10.062;2023-06-24T10:14:30;102303.72;;;32.10;31.53
17785;BME280;9016;53.582;10.062;2023-06-24T10:17:02;102298.66;;;31.92;32.27
17785;BME280;9016;53.582;10.062;2023-06-24T10:19:37;102304.25;;;31.70;32.69
17785;BME280;9016;53.582;10.062;2023-06-24T10:22:07;102296.34;;;31.81;32.22
17785;BME280;9016;53.582;10.062;2023-06-24T10:24:38;102303.09;;;31.93;32.89
17785;BME280;9016;53.582;10.062;2023-06-24T10:27:14;102300.75;;;31.90;33.26
17785;BME280;9016;53.582;10.062;2023-06-24T10:29:45;102295.75;;;32.00;32.46
17785;BME280;9016;53.582;10.062;2023-06-24T10:32:13;102301.94;;;31.88;33.52
17785;BME280;9016;53.582;10.062;2023-06-24T10:34:42;102290.44;;;31.84;33.66
17785;BME280;9016;53.582;10.062;2023-06-24T10:37:14;102290.13;;;32.08;33.35
17785;BME280;9016;53.582;10.062;2023-06-24T10:39:48;102287.81;;;32.12;33.46
17785;BME280;9016;53.582;10.062;2023-06-24T10:42:28;102285.69;;;32.07;33.23
17785;BME280;9016;53.582;10.062;2023-06-24T10:44:58;102288.31;;;31.51;33.42
17785;BME280;9016;53.582;10.062;2023-06-24T10:47:27;102282.94;;;31.78;33.31
17785;BME280;9016;53.582;10.062;2023-06-24T10:49:56;102286.00;;;31.83;33.20
17785;BME280;9016;53.582;10.062;2023-06-24T10:52:24;102277.38;;;31.28;33.56
17785;BME280;9016;53.582;10.062;2023-06-24T10:54:53;102275.78;;;31.19;33.85
17785;BME280;9016;53.582;10.062;2023-06-24T10:57:23;102277.38;;;30.99;35.24
17785;BME280;9016;53.582;10.062;2023-06-24T10:59:54;102274.69;;;30.54;35.37
17785;BME280;9016;53.582;10.062;2023-06-24T11:02:23;102280.16;;;30.76;35.56
17785;BME280;9016;53.582;10.062;2023-06-24T11:04:53;102266.00;;;30.42;35.04
17785;BME280;9016;53.582;10.062;2023-06-24T11:07:23;102270.91;;;30.01;35.61
17785;BME280;9016;53.582;10.062;2023-06-24T11:09:52;102255.34;;;30.16;35.40
17785;BME280;9016;53.582;10.062;2023-06-24T11:12:24;102250.56;;;29.88;35.70
17785;BME280;9016;53.582;10.062;2023-06-24T11:14:57;102259.66;;;29.88;36.18
17785;BME280;9016;53.582;10.062;2023-06-24T11:17:26;102255.44;;;30.08;36.07
17785;BME280;9016;53.582;10.062;2023-06-24T11:19:55;102254.66;;;30.14;35.85
17785;BME280;9016;53.582;10.062;2023-06-24T11:22:24;102259.09;;;30.01;35.79
17785;BME280;9016;53.582;10.062;2023-06-24T11:24:54;102254.53;;;29.47;36.73
17785;BME280;9016;53.582;10.062;2023-06-24T11:27:26;102255.34;;;29.55;35.92
17785;BME280;9016;53.582;10.062;2023-06-24T11:29:59;102255.69;;;29.60;36.61
17785;BME280;9016;53.582;10.062;2023-06-24T11:32:35;102257.69;;;29.66;36.61
17785;BME280;9016;53.582;10.062;2023-06-24T11:35:05;102246.03;;;29.72;36.82
17785;BME280;9016;53.582;10.062;2023-06-24T11:37:33;102246.88;;;29.73;37.18
17785;BME280;9016;53.582;10.062;2023-06-24T11:40:03;102244.81;;;29.75;37.03
17785;BME280;9016;53.582;10.062;2023-06-24T11:42:32;102249.25;;;29.76;36.55
17785;BME280;9016;53.582;10.062;2023-06-24T11:45:06;102253.94;;;29.75;37.37
17785;BME280;9016;53.582;10.062;2023-06-24T11:47:34;102245.13;;;29.41;37.73
17785;BME280;9016;53.582;10.062;2023-06-24T11:50:04;102249.44;;;29.66;38.10
17785;BME280;9016;53.582;10.062;2023-06-24T11:52:41;102240.41;;;29.88;37.74
17785;BME280;9016;53.582;10.062;2023-06-24T11:55:13;102238.03;;;29.85;37.64
17785;BME280;9016;53.582;10.062;2023-06-24T11:57:50;102235.25;;;29.93;37.47
17785;BME280;9016;53.582;10.062;2023-06-24T12:00:24;102224.84;;;29.81;37.46
17785;BME280;9016;53.582;10.062;2023-06-24T12:02:56;102229.19;;;29.75;38.25
17785;BME280;9016;53.582;10.062;2023-06-24T12:05:26;102228.72;;;29.56;38.61
17785;BME280;9016;53.582;10.062;2023-06-24T12:07:59;102230.75;;;29.31;38.62
17785;BME280;9016;53.582;10.062;2023-06-24T12:10:28;102224.78;;;29.19;38.76
17785;BME280;9016;53.582;10.062;2023-06-24T12:13:01;102221.16;;;29.27;38.62
17785;BME280;9016;53.582;10.062;2023-06-24T12:15:33;102222.72;;;29.60;39.26
17785;BME280;9016;53.582;10.062;2023-06-24T12:18:01;102219.06;;;29.68;38.46
17785;BME280;9016;53.582;10.062;2023-06-24T12:20:30;102222.03;;;29.89;38.75
17785;BME280;9016;53.582;10.062;2023-06-24T12:23:04;102223.06;;;29.57;38.27
17785;BME280;9016;53.582;10.062;2023-06-24T12:25:32;102220.97;;;29.59;38.55
17785;BME280;9016;53.582;10.062;2023-06-24T12:28:01;102223.84;;;29.74;38.73
17785;BME280;9016;53.582;10.062;2023-06-24T12:30:31;102218.72;;;29.63;38.56
17785;BME280;9016;53.582;10.062;2023-06-24T12:33:00;102222.03;;;29.58;38.69
17785;BME280;9016;53.582;10.062;2023-06-24T12:35:29;102233.63;;;29.38;38.77
17785;BME280;9016;53.582;10.062;2023-06-24T12:37:58;102223.03;;;29.26;38.56
17785;BME280;9016;53.582;10.062;2023-06-24T12:40:26;102218.59;;;29.25;38.97
17785;BME280;9016;53.582;10.062;2023-06-24T12:42:56;102220.78;;;29.38;39.83
17785;BME280;9016;53.582;10.062;2023-06-24T12:45:26;102216.56;;;29.50;39.51
17785;BME280;9016;53.582;10.062;2023-06-24T12:47:55;102212.13;;;29.49;39.13
17785;BME280;9016;53.582;10.062;2023-06-24T12:50:24;102215.28;;;29.38;39.53
17785;BME280;9016;53.582;10.062;2023-06-24T12:52:52;102214.63;;;29.28;39.33
17785;BME280;9016;53.582;10.062;2023-06-24T12:55:20;102215.00;;;29.25;39.63
17785;BME280;9016;53.582;10.062;2023-06-24T12:57:48;102201.47;;;29.15;39.55
17785;BME280;9016;53.582;10.062;2023-06-24T13:00:19;102213.66;;;29.13;39.85
17785;BME280;9016;53.582;10.062;2023-06-24T13:02:48;102216.34;;;29.29;40.33
17785;BME280;9016;53.582;10.062;2023-06-24T13:05:17;102202.66;;;29.52;39.62